Time;durP1;ratioP1;P1;durP2;ratioP2;P2;SDS_P1;SDS_P2;PMS_P1;PMS_P2;Temp;Humidity;BMP_temperature;BMP_pressure;BME280_temperature;BME280_humidity;BME280_pressure;Samples;Min_cycle;Max_cycle;Signal;HPM_P1;HPM_P2
2022/01/13 00:00:54;;;;;;;32.28;23.45;;;;;;;3.56;93.86;102147.12;2909835;82;20993;-69
2022/01/13 00:04:56;;;;;;;45.70;26.62;;;;;;;3.61;93.59;102143.08;2909629;81;20993;-69
2022/01/13 00:08:58;;;;;;;47.60;25.95;;;;;;;3.63;93.33;102138.64;2909419;82;21001;-69
2022/01/13 00:13:06;;;;;;;41.18;22.82;;;;;;;3.54;93.44;102134.02;2909688;80;21040;-69
2022/01/13 00:17:22;;;;;;;38.83;22.10;;;;;;;3.64;93.15;102137.30;2909529;81;21005;-69
2022/01/13 00:21:15;;;;;;;30.82;20.82;;;;;;;3.54;93.43;102139.71;2908323;81;21044;-69
2022/01/13 00:25:17;;;;;;;33.08;21.23;;;;;;;3.57;93.71;102140.52;2909148;81;21005;-69
2022/01/13 00:29:24;;;;;;;36.42;23.00;;;;;;;3.62;93.40;102154.02;2909580;80;20978;-69
2022/01/13 00:33:25;;;;;;;35.80;24.55;;;;;;;3.57;93.84;102160.69;2909315;81;21005;-68
2022/01/13 00:37:27;;;;;;;36.28;23.50;;;;;;;3.63;93.49;102153.97;2906848;81;21013;-68
2022/01/13 00:41:29;;;;;;;42.15;25.08;;;;;;;3.65;93.28;102150.88;2890383;82;21044;-69
2022/01/13 00:45:31;;;;;;;36.40;24.47;;;;;;;3.66;93.00;102147.77;2904631;81;21278;-69
2022/01/13 00:49:32;;;;;;;38.00;26.35;;;;;;;3.62;93.26;102150.92;2904500;82;20978;-68
2022/01/13 00:53:34;;;;;;;29.85;18.40;;;;;;;3.68;93.27;102157.81;2904550;82;20954;-68
2022/01/13 00:57:36;;;;;;;45.85;25.35;;;;;;;3.45;93.87;102172.82;2904786;82;20978;-68
2022/01/13 01:01:41;;;;;;;33.30;19.23;;;;;;;3.57;93.57;102152.36;2904481;82;20990;-69
2022/01/13 01:05:43;;;;;;;40.20;25.00;;;;;;;3.55;93.64;102160.74;2904561;81;21017;-68
2022/01/13 01:09:49;;;;;;;39.80;22.13;;;;;;;3.53;93.44;102169.56;2904645;82;20993;-68
2022/01/13 01:13:52;;;;;;;36.58;21.87;;;;;;;3.52;93.91;102185.78;2904680;81;21001;-69
2022/01/13 01:18:01;;;;;;;39.92;24.10;;;;;;;3.45;93.44;102190.77;2904797;81;21013;-69
2022/01/13 01:30:41;;;;;;;36.33;21.90;;;;;;;3.47;92.66;102138.98;2904736;81;21041;-68
2022/01/13 01:38:48;;;;;;;35.80;23.30;;;;;;;3.66;91.36;102120.14;2908607;81;21019;-67
2022/01/13 01:42:49;;;;;;;34.08;20.72;;;;;;;3.70;89.97;102108.20;2909707;81;21009;-69
2022/01/13 01:46:51;;;;;;;29.10;18.50;;;;;;;3.77;89.04;102090.49;2909698;81;21080;-68
2022/01/13 01:50:58;;;;;;;32.60;20.82;;;;;;;3.77;88.13;102097.52;2910354;82;21041;-68
2022/01/13 01:54:59;;;;;;;31.42;21.87;;;;;;;3.79;87.65;102090.00;2910043;81;21048;-69
2022/01/13 01:59:03;;;;;;;30.68;20.32;;;;;;;3.71;87.18;102078.78;2909652;82;20985;-68
2022/01/13 02:03:06;;;;;;;32.15;19.98;;;;;;;3.66;87.00;102074.96;2910085;81;21448;-68
2022/01/13 02:07:08;;;;;;;38.38;22.98;;;;;;;3.62;86.79;102073.28;2909894;81;21073;-68
2022/01/13 02:11:10;;;;;;;30.30;19.82;;;;;;;3.63;86.86;102072.84;2909910;82;20995;-68
2022/01/13 02:15:28;;;;;;;36.25;22.35;;;;;;;3.53;86.39;102067.78;2910025;81;21357;-68
2022/01/13 02:19:20;;;;;;;30.05;18.90;;;;;;;3.42;86.05;102085.14;2908764;81;21036;-68
2022/01/13 02:23:38;;;;;;;32.25;17.98;;;;;;;3.39;85.89;102081.27;2910027;81;21001;-68
2022/01/13 02:27:41;;;;;;;34.03;19.75;;;;;;;3.37;85.42;102090.12;2909690;81;21014;-68
2022/01/13 02:31:43;;;;;;;33.05;20.72;;;;;;;3.35;85.59;102087.97;2909982;81;20989;-68
2022/01/13 02:35:45;;;;;;;33.95;20.80;;;;;;;3.41;85.26;102079.93;2910181;81;21024;-68
2022/01/13 02:39:47;;;;;;;26.17;18.82;;;;;;;3.43;84.77;102079.44;2914324;81;21013;-68
2022/01/13 02:43:53;;;;;;;31.40;17.70;;;;;;;3.43;84.62;102083.39;2914386;81;20969;-68
2022/01/13 02:52:09;;;;;;;27.80;17.15;;;;;;;3.47;84.24;102067.09;2914423;81;21009;-69
2022/01/13 02:56:10;;;;;;;31.50;19.48;;;;;;;3.55;83.90;102079.17;2914634;81;20981;-69
2022/01/13 03:00:15;;;;;;;25.90;16.57;;;;;;;3.53;83.83;102084.04;2914072;81;20990;-69
2022/01/13 03:04:17;;;;;;;23.90;16.00;;;;;;;3.59;83.46;102085.67;2914331;81;21040;-69
2022/01/13 03:08:19;;;;;;;31.17;17.75;;;;;;;3.52;83.04;102088.42;2914163;81;21041;-69
2022/01/13 03:12:22;;;;;;;28.30;16.15;;;;;;;3.63;83.13;102092.58;2914195;81;21077;-69
2022/01/13 03:16:24;;;;;;;26.52;15.32;;;;;;;3.63;83.07;102097.84;2914153;80;20969;-69
2022/01/13 03:20:27;;;;;;;25.88;16.85;;;;;;;3.59;83.29;102093.56;2914050;81;20973;-69
2022/01/13 03:24:31;;;;;;;23.12;14.40;;;;;;;3.66;83.15;102097.77;2914063;81;21005;-68
2022/01/13 03:28:51;;;;;;;22.75;16.00;;;;;;;3.63;83.13;102099.16;2913934;81;21017;-68
2022/01/13 03:32:37;;;;;;;25.00;17.27;;;;;;;3.62;82.89;102102.70;2911411;81;20957;-69
2022/01/13 03:36:40;;;;;;;20.80;15.43;;;;;;;3.62;83.16;102083.81;2913042;80;20977;-69
2022/01/13 03:40:42;;;;;;;26.62;15.60;;;;;;;3.66;83.33;102091.19;2909098;81;21458;-68
2022/01/13 03:44:44;;;;;;;25.60;16.45;;;;;;;3.66;83.40;102090.75;2909858;82;21024;-68
2022/01/13 03:48:46;;;;;;;30.30;19.10;;;;;;;3.63;83.27;102085.53;2909671;82;21004;-68
2022/01/13 03:53:02;;;;;;;28.20;15.58;;;;;;;3.72;83.14;102079.19;2909675;82;20981;-68
2022/01/13 03:57:30;;;;;;;27.48;15.35;;;;;;;3.62;83.46;102080.33;2909639;81;21009;-68
2022/01/13 04:02:02;;;;;;;23.35;14.28;;;;;;;3.78;83.44;102075.55;2908528;81;21545;-68
2022/01/13 04:06:18;;;;;;;27.70;16.75;;;;;;;3.79;83.51;102077.28;2909662;81;20973;-69
2022/01/13 04:10:50;;;;;;;20.72;13.90;;;;;;;3.85;83.75;102071.41;2909637;82;20962;-68
2022/01/13 04:14:56;;;;;;;22.35;12.90;;;;;;;3.86;83.65;102066.55;2909772;81;21025;-69
2022/01/13 04:19:03;;;;;;;21.52;13.45;;;;;;;3.91;83.64;102036.61;2909284;81;21008;-68
2022/01/13 04:23:03;;;;;;;24.27;14.05;;;;;;;4.04;83.75;102044.61;2908670;81;21028;-70
2022/01/13 04:27:08;;;;;;;30.82;15.32;;;;;;;3.93;84.07;102038.75;2908011;81;21080;-70
2022/01/13 04:31:09;;;;;;;18.23;13.10;;;;;;;3.81;84.84;102021.06;2907887;80;20953;-70
2022/01/13 04:35:12;;;;;;;18.27;12.95;;;;;;;3.79;85.18;102024.62;2908331;82;21013;-69
2022/01/13 04:39:16;;;;;;;24.15;15.70;;;;;;;3.75;85.56;102015.97;2908129;81;21033;-70
2022/01/13 04:43:17;;;;;;;30.57;13.65;;;;;;;3.77;85.70;102013.27;2908305;81;20969;-70
2022/01/13 04:47:19;;;;;;;20.43;13.60;;;;;;;3.77;85.64;102013.27;2908506;81;21505;-70
2022/01/13 04:51:20;;;;;;;26.75;13.98;;;;;;;3.78;85.80;102000.09;2908363;80;21044;-70
2022/01/13 04:55:30;;;;;;;17.10;11.60;;;;;;;3.83;85.92;101985.47;2908343;81;21013;-70
2022/01/13 04:59:26;;;;;;;17.85;12.70;;;;;;;3.84;86.03;102001.70;2907163;81;21049;-70
2022/01/13 05:03:27;;;;;;;21.35;14.20;;;;;;;3.84;86.22;101997.28;2908341;81;20990;-70
2022/01/13 05:07:29;;;;;;;23.25;15.93;;;;;;;3.89;86.26;101985.33;2909004;81;20990;-71
2022/01/13 05:11:31;;;;;;;20.80;14.50;;;;;;;3.86;86.50;101988.89;2909209;80;21016;-70
2022/01/13 05:15:35;;;;;;;21.10;15.48;;;;;;;3.89;86.59;101991.03;2909312;82;20990;-70
2022/01/13 05:19:41;;;;;;;25.02;15.90;;;;;;;3.90;86.82;101979.59;2909135;81;21056;-70
2022/01/13 05:23:39;;;;;;;21.20;15.25;;;;;;;3.83;87.08;101987.66;2907844;81;21005;-70
2022/01/13 05:27:41;;;;;;;35.40;18.60;;;;;;;3.83;87.21;101979.77;2909107;81;21512;-70
2022/01/13 05:31:43;;;;;;;25.50;17.05;;;;;;;3.90;86.98;101987.05;2908548;82;21020;-70
2022/01/13 05:35:45;;;;;;;26.73;16.05;;;;;;;3.89;87.11;101973.48;2908772;80;21024;-70
2022/01/13 05:39:47;;;;;;;26.65;16.10;;;;;;;3.91;86.99;101986.58;2904294;81;21037;-69
2022/01/13 05:43:48;;;;;;;18.20;14.87;;;;;;;3.97;86.80;101981.17;2904244;82;20994;-70
2022/01/13 05:47:50;;;;;;;18.12;13.20;;;;;;;3.99;86.57;101972.78;2904264;81;20965;-70
2022/01/13 05:51:52;;;;;;;19.92;14.05;;;;;;;4.04;86.23;101968.70;2904474;81;20958;-70
2022/01/13 05:55:53;;;;;;;25.92;16.80;;;;;;;3.98;86.08;101966.63;2904502;82;21451;-70
2022/01/13 05:59:55;;;;;;;24.90;15.35;;;;;;;4.03;86.10;101959.93;2904267;82;21036;-71
2022/01/13 06:03:57;;;;;;;18.52;12.05;;;;;;;3.99;85.96;101956.51;2904282;82;20997;-70
2022/01/13 06:07:59;;;;;;;21.12;13.48;;;;;;;3.99;85.89;101967.52;2904563;81;21013;-71
2022/01/13 06:12:03;;;;;;;33.02;16.42;;;;;;;3.98;86.04;101956.56;2904495;82;21033;-71
2022/01/13 06:16:04;;;;;;;19.52;14.78;;;;;;;3.96;86.25;101949.17;2904531;81;20969;-71
2022/01/13 06:20:10;;;;;;;22.07;13.88;;;;;;;4.02;86.20;101946.35;2903706;82;20962;-71
2022/01/13 06:24:12;;;;;;;19.45;14.10;;;;;;;4.01;86.15;101949.89;2904355;81;20981;-71
2022/01/13 06:28:13;;;;;;;18.62;11.88;;;;;;;3.99;86.30;101942.50;2904628;81;21005;-69
2022/01/13 06:32:15;;;;;;;20.72;14.47;;;;;;;3.97;86.55;101946.47;2904382;81;21032;-71
2022/01/13 06:36:17;;;;;;;22.93;15.32;;;;;;;3.93;86.90;101942.20;2904787;81;20997;-70
2022/01/13 06:40:19;;;;;;;29.87;14.83;;;;;;;4.00;86.84;101950.33;2908827;82;21064;-70
2022/01/13 06:44:21;;;;;;;21.42;13.70;;;;;;;4.05;86.53;101947.58;2909339;82;21585;-71
2022/01/13 06:48:22;;;;;;;19.95;12.82;;;;;;;4.09;86.12;101949.69;2909709;82;21028;-70
2022/01/13 06:52:24;;;;;;;22.95;13.60;;;;;;;4.13;85.94;101964.48;2909704;82;21076;-71
2022/01/13 06:56:26;;;;;;;18.52;11.55;;;;;;;4.16;86.04;101965.72;2909667;81;21068;-71
2022/01/13 07:00:29;;;;;;;22.20;13.90;;;;;;;4.15;86.11;101992.96;2909558;81;21056;-70
2022/01/13 07:04:30;;;;;;;15.60;10.00;;;;;;;4.20;86.32;101990.21;2909102;81;20969;-70
2022/01/13 07:08:33;;;;;;;26.30;13.72;;;;;;;4.15;86.41;102007.45;2909737;81;21033;-70
2022/01/13 07:12:35;;;;;;;20.32;12.73;;;;;;;4.27;86.18;101990.00;2909580;81;21044;-70
2022/01/13 07:16:39;;;;;;;21.87;12.65;;;;;;;4.34;86.24;102008.27;2909727;82;20993;-70
2022/01/13 07:20:43;;;;;;;20.48;10.95;;;;;;;4.34;86.53;101985.87;2909720;81;21013;-71
2022/01/13 07:24:45;;;;;;;18.95;12.03;;;;;;;4.36;86.39;102007.77;2909575;82;21013;-70
2022/01/13 07:28:47;;;;;;;19.42;13.13;;;;;;;4.42;86.57;101990.02;2909551;82;21045;-70
2022/01/13 07:32:49;;;;;;;19.65;13.03;;;;;;;4.50;86.45;101965.20;2909648;82;21012;-70
2022/01/13 07:36:51;;;;;;;15.70;8.95;;;;;;;4.50;86.61;101950.70;2909177;80;21065;-70
2022/01/13 07:40:53;;;;;;;15.40;10.72;;;;;;;4.53;86.76;101955.91;2914043;81;21020;-70
2022/01/13 07:44:55;;;;;;;17.85;10.53;;;;;;;4.53;86.85;101953.27;2913572;81;21028;-71
2022/01/13 07:48:56;;;;;;;12.50;9.68;;;;;;;4.53;86.63;101942.73;2913977;81;21001;-70
2022/01/13 07:52:58;;;;;;;26.75;10.98;;;;;;;4.48;86.77;101941.54;2913842;81;20977;-71
2022/01/13 07:57:00;;;;;;;14.63;10.90;;;;;;;4.45;87.15;101941.64;2914105;81;20993;-71
2022/01/13 08:01:03;;;;;;;25.88;13.35;;;;;;;4.42;87.50;101938.63;2914015;81;20981;-71
2022/01/13 08:05:06;;;;;;;15.83;9.90;;;;;;;4.45;87.66;101936.81;2913931;81;21005;-71
2022/01/13 08:09:08;;;;;;;27.85;11.78;;;;;;;4.43;88.05;101941.67;2914000;81;21009;-70
2022/01/13 08:13:09;;;;;;;16.15;10.05;;;;;;;4.49;88.18;101935.36;2913955;81;20993;-70
2022/01/13 08:19:45;;;;;;;18.52;11.90;;;;;;;4.52;88.34;101929.99;2914069;81;20997;-70
2022/01/13 08:21:14;;;;;;;24.20;11.12;;;;;;;4.56;88.41;101919.76;2912592;81;21040;-70
2022/01/13 08:25:17;;;;;;;20.50;11.05;;;;;;;4.64;88.64;101926.13;2914157;81;20981;-70
2022/01/13 08:29:19;;;;;;;17.07;10.43;;;;;;;4.69;88.47;101933.42;2914046;81;21005;-69
2022/01/13 08:33:22;;;;;;;15.20;9.75;;;;;;;4.65;88.75;101929.16;2914221;81;21009;-70
2022/01/13 08:37:25;;;;;;;24.75;10.50;;;;;;;4.68;88.76;101930.85;2912980;81;21061;-71
2022/01/13 08:41:27;;;;;;;15.65;12.30;;;;;;;4.71;88.92;101937.34;2904673;81;21009;-71
2022/01/13 08:45:29;;;;;;;12.20;10.15;;;;;;;4.69;89.01;101932.10;2904304;82;20985;-70
2022/01/13 08:49:30;;;;;;;21.48;11.75;;;;;;;4.69;89.09;101921.56;2904893;80;21017;-69
2022/01/13 08:53:32;;;;;;;15.80;11.50;;;;;;;4.64;89.47;101930.07;2904920;81;20985;-71
2022/01/13 08:57:34;;;;;;;13.90;10.23;;;;;;;4.65;89.62;101900.16;2904677;82;21037;-71
2022/01/13 09:01:36;;;;;;;16.23;10.85;;;;;;;4.70;89.50;101922.44;2904583;82;20993;-71
2022/01/13 09:05:39;;;;;;;21.65;12.68;;;;;;;4.67;89.67;101920.75;2904623;81;21005;-71
2022/01/13 09:09:41;;;;;;;16.40;12.88;;;;;;;4.69;89.93;101924.20;2904746;82;21029;-70
2022/01/13 09:13:42;;;;;;;20.70;10.72;;;;;;;4.64;90.33;101919.53;2904846;81;21028;-70
2022/01/13 09:17:51;;;;;;;21.10;12.75;;;;;;;4.61;90.55;101930.17;2904558;82;21041;-70
2022/01/13 09:21:52;;;;;;;25.82;12.43;;;;;;;4.60;90.77;101933.72;2904475;81;21005;-71
2022/01/13 09:25:54;;;;;;;19.35;12.40;;;;;;;4.61;90.92;101929.30;2904637;81;21329;-71
2022/01/13 09:29:56;;;;;;;19.07;13.18;;;;;;;4.54;91.07;101923.38;2904492;82;21512;-70
2022/01/13 09:33:58;;;;;;;25.97;14.25;;;;;;;4.51;91.59;101911.14;2904419;81;21017;-71
2022/01/13 09:38:02;;;;;;;20.12;12.68;;;;;;;4.53;91.37;101908.47;2906106;81;21052;-70
2022/01/13 09:42:07;;;;;;;18.45;12.90;;;;;;;4.58;91.23;101896.00;2913279;81;21006;-70
2022/01/13 09:46:09;;;;;;;21.37;12.40;;;;;;;4.64;91.14;101916.89;2913639;81;20989;-70
2022/01/13 09:50:16;;;;;;;18.40;11.75;;;;;;;4.59;91.16;101925.41;2903252;81;20981;-71
2022/01/13 09:54:17;;;;;;;20.57;13.08;;;;;;;4.57;91.16;101945.20;2913818;81;21016;-70
2022/01/13 09:58:19;;;;;;;28.07;13.60;;;;;;;4.55;91.28;101943.55;2913750;81;21037;-70
2022/01/13 10:02:21;;;;;;;22.48;11.35;;;;;;;4.65;90.92;101941.02;2913535;81;20997;-70
2022/01/13 10:06:23;;;;;;;20.27;12.33;;;;;;;4.62;91.06;101942.44;2913465;81;21045;-71
2022/01/13 10:10:34;;;;;;;30.82;13.03;;;;;;;4.56;91.13;101927.66;2913730;81;20996;-70
2022/01/13 10:18:44;;;;;;;18.48;12.30;;;;;;;4.70;91.05;101921.13;2913825;81;20973;-70
2022/01/13 10:22:48;;;;;;;20.32;11.22;;;;;;;4.75;90.88;101923.62;2913800;81;21049;-70
2022/01/13 10:27:20;;;;;;;21.07;12.25;;;;;;;4.78;90.79;101917.77;2913826;81;21056;-71
2022/01/13 10:31:26;;;;;;;21.10;12.03;;;;;;;4.89;90.66;101908.20;2913978;81;21024;-70
2022/01/13 10:35:27;;;;;;;22.07;14.07;;;;;;;5.00;90.23;101902.58;2909477;81;21016;-69
2022/01/13 10:39:52;;;;;;;21.75;14.28;;;;;;;5.06;89.80;101901.53;2909577;81;21001;-70
2022/01/13 10:44:13;;;;;;;28.40;14.05;;;;;;;5.18;89.53;101893.66;2904909;81;21100;-71
2022/01/13 10:48:22;;;;;;;19.05;13.05;;;;;;;5.22;89.02;101893.52;2888100;82;20986;-71
2022/01/13 10:52:27;;;;;;;18.75;11.22;;;;;;;5.36;88.48;101855.25;2847792;83;21038;-71
2022/01/13 10:56:29;;;;;;;28.12;11.80;;;;;;;5.39;88.21;101839.30;2849504;83;21015;-71
2022/01/13 11:00:34;;;;;;;17.92;11.90;;;;;;;5.45;87.83;101849.63;2849738;83;21000;-70
2022/01/13 11:04:36;;;;;;;20.07;11.97;;;;;;;5.60;87.73;101835.05;2849980;83;20960;-70
2022/01/13 11:08:44;;;;;;;17.80;11.68;;;;;;;5.52;87.62;101831.36;2849425;83;20996;-71
2022/01/13 11:12:55;;;;;;;18.70;9.85;;;;;;;5.57;87.79;101839.97;2848802;83;29753;-71
2022/01/13 11:16:51;;;;;;;19.92;11.50;;;;;;;5.60;87.39;101819.21;2891173;82;21006;-70
2022/01/13 11:20:55;;;;;;;23.10;12.50;;;;;;;5.65;87.56;101822.98;2905237;81;21044;-70
2022/01/13 11:24:57;;;;;;;16.85;10.58;;;;;;;5.66;87.13;101836.58;2905155;81;21021;-71
2022/01/13 11:29:03;;;;;;;15.95;10.25;;;;;;;5.67;87.25;101798.70;2905027;82;20970;-70
2022/01/13 11:33:06;;;;;;;16.95;11.78;;;;;;;5.73;87.18;101814.34;2905104;82;21052;-71
2022/01/13 11:37:08;;;;;;;20.45;10.20;;;;;;;5.80;86.99;101801.30;2905245;81;20973;-70
2022/01/13 11:41:12;;;;;;;17.50;11.65;;;;;;;5.77;87.06;101811.10;2905049;81;21002;-70
2022/01/13 11:45:17;;;;;;;14.78;9.70;;;;;;;5.92;86.71;101813.17;2905433;81;21016;-70
2022/01/13 11:49:32;;;;;;;16.50;10.53;;;;;;;5.93;86.54;101779.23;2905085;81;20986;-70
2022/01/13 11:53:32;;;;;;;21.62;10.98;;;;;;;5.97;86.50;101782.16;2903411;81;21056;-70
2022/01/13 11:57:36;;;;;;;22.30;11.18;;;;;;;5.98;86.42;101773.78;2905178;81;20997;-70
2022/01/13 12:01:38;;;;;;;24.02;11.48;;;;;;;5.92;86.35;101791.20;2905264;81;21462;-71
2022/01/13 12:05:43;;;;;;;17.30;10.78;;;;;;;6.04;86.12;101788.09;2905146;81;21044;-71
2022/01/13 12:09:44;;;;;;;20.62;10.18;;;;;;;5.96;85.83;101776.95;2905306;81;21028;-71
2022/01/13 12:13:49;;;;;;;18.12;12.00;;;;;;;6.02;85.76;101782.02;2905264;81;20993;-70
2022/01/13 12:18:01;;;;;;;23.25;10.78;;;;;;;6.04;85.33;101745.83;2904902;81;21002;-70
2022/01/13 12:22:22;;;;;;;13.28;8.03;;;;;;;6.12;85.27;101750.81;2905348;81;21020;-70
2022/01/13 12:26:46;;;;;;;21.57;12.75;;;;;;;6.06;85.20;101745.78;2904894;81;21059;-70
2022/01/13 12:30:49;;;;;;;17.25;10.25;;;;;;;6.18;85.18;101747.08;2905488;81;21021;-70
2022/01/13 12:34:51;;;;;;;17.80;10.25;;;;;;;6.26;84.73;101731.76;2905073;82;21009;-70
2022/01/13 12:39:02;;;;;;;16.42;11.50;;;;;;;6.35;84.61;101755.19;2905003;81;20958;-70
2022/01/13 12:43:37;;;;;;;20.48;10.32;;;;;;;6.38;84.32;101741.84;2905209;81;21045;-71
2022/01/13 12:47:37;;;;;;;25.55;11.12;;;;;;;6.41;84.20;101738.22;2904863;80;21034;-70
2022/01/13 12:51:38;;;;;;;20.50;11.73;;;;;;;6.43;84.05;101730.61;2905113;82;21095;-70
2022/01/13 12:55:44;;;;;;;15.13;10.65;;;;;;;6.50;83.94;101716.68;2905061;80;20986;-70
2022/01/13 12:59:46;;;;;;;20.30;12.78;;;;;;;6.54;83.66;101713.45;2905475;82;21052;-70
2022/01/13 13:04:05;;;;;;;21.48;12.15;;;;;;;6.64;83.79;101708.64;2905216;81;21364;-71
2022/01/13 13:08:11;;;;;;;24.45;11.45;;;;;;;6.75;83.43;101709.50;2905272;82;21024;-69
2022/01/13 13:12:24;;;;;;;18.02;11.68;;;;;;;6.81;82.91;101693.36;2905353;81;20973;-70
2022/01/13 13:16:17;;;;;;;24.50;12.43;;;;;;;6.82;82.95;101703.88;2904164;81;21021;-70
2022/01/13 13:20:28;;;;;;;14.58;9.35;;;;;;;6.82;82.71;101689.78;2905273;81;21013;-70
2022/01/13 13:24:35;;;;;;;16.95;9.70;;;;;;;6.76;82.62;101688.73;2905205;82;20985;-71
2022/01/13 13:28:48;;;;;;;16.40;9.30;;;;;;;6.77;82.71;101679.88;2904524;81;20986;-70
2022/01/13 13:32:52;;;;;;;16.00;9.63;;;;;;;6.66;83.02;101684.31;2905289;81;21056;-71
2022/01/13 13:36:53;;;;;;;10.58;8.35;;;;;;;6.60;83.26;101683.27;2905336;81;20970;-70
2022/01/13 13:40:55;;;;;;;17.52;9.60;;;;;;;6.51;83.42;101685.83;2908382;82;21016;-71
2022/01/13 13:44:58;;;;;;;19.80;10.85;;;;;;;6.49;83.54;101681.08;2910078;82;20981;-71
2022/01/13 13:49:00;;;;;;;16.55;9.85;;;;;;;6.48;83.78;101691.22;2910003;81;20994;-71
2022/01/13 13:53:12;;;;;;;12.65;9.30;;;;;;;6.42;84.11;101679.98;2897372;81;22127;-70
2022/01/13 13:57:16;;;;;;;24.40;10.30;;;;;;;6.36;84.25;101684.67;2910252;82;21008;-70
2022/01/13 14:01:17;;;;;;;15.58;10.88;;;;;;;6.37;84.50;101679.33;2910311;81;21005;-70
2022/01/13 14:05:24;;;;;;;15.23;9.25;;;;;;;6.40;84.30;101673.91;2910276;81;20938;-70
2022/01/13 14:09:39;;;;;;;18.60;10.95;;;;;;;6.34;84.62;101680.78;2909817;81;21032;-70
2022/01/13 14:13:40;;;;;;;12.90;9.00;;;;;;;6.41;84.49;101674.79;2909982;81;20993;-70
2022/01/13 14:17:44;;;;;;;16.17;8.98;;;;;;;6.40;84.54;101691.09;2910337;82;21044;-70
2022/01/13 14:21:51;;;;;;;16.32;8.05;;;;;;;6.46;84.13;101688.66;2910133;82;21036;-70
2022/01/13 14:26:09;;;;;;;12.37;8.45;;;;;;;6.48;84.22;101692.55;2909968;82;21052;-71
2022/01/13 14:30:11;;;;;;;11.75;9.43;;;;;;;6.41;84.42;101702.54;2909979;81;20962;-71
2022/01/13 14:34:13;;;;;;;14.70;8.98;;;;;;;6.45;84.02;101704.58;2909491;81;20957;-72
2022/01/13 14:38:15;;;;;;;14.58;8.78;;;;;;;6.37;84.28;101711.05;2909697;82;21017;-71
2022/01/13 14:42:27;;;;;;;16.30;7.72;;;;;;;6.30;84.57;101721.48;2876679;82;21037;-71
2022/01/13 14:46:34;;;;;;;19.25;9.53;;;;;;;6.28;84.51;101721.98;2902883;81;21029;-78
2022/01/13 14:50:35;;;;;;;20.08;10.03;;;;;;;6.12;84.93;101729.23;2888521;82;21089;-77
2022/01/13 14:54:37;;;;;;;14.25;9.93;;;;;;;6.05;85.46;101715.84;2904438;82;20986;-71
2022/01/13 14:58:40;;;;;;;16.35;12.25;;;;;;;5.97;85.80;101725.84;2905143;82;20993;-71
2022/01/13 15:02:48;;;;;;;13.93;10.55;;;;;;;5.96;85.97;101721.48;2890472;82;20961;-71
2022/01/13 15:06:45;;;;;;;17.52;11.05;;;;;;;5.84;86.49;101728.95;2904624;81;21049;-71
2022/01/13 15:10:48;;;;;;;19.35;12.50;;;;;;;5.80;86.90;101725.19;2905049;82;20966;-70
2022/01/13 15:14:51;;;;;;;23.80;12.30;;;;;;;5.76;87.17;101719.16;2905170;81;21018;-69
2022/01/13 15:19:00;;;;;;;18.55;9.83;;;;;;;5.71;87.08;101722.45;2905038;81;21060;-70
2022/01/13 15:22:58;;;;;;;23.18;14.93;;;;;;;5.64;87.38;101727.09;2904456;81;21037;-70
2022/01/13 15:27:01;;;;;;;20.10;12.50;;;;;;;5.62;87.18;101734.21;2905238;82;20978;-70
2022/01/13 15:31:03;;;;;;;23.12;11.90;;;;;;;5.73;87.14;101732.48;2905091;81;20989;-70
2022/01/13 15:35:06;;;;;;;19.95;11.70;;;;;;;5.72;87.13;101731.61;2904838;82;20942;-72
2022/01/13 15:39:08;;;;;;;19.73;11.88;;;;;;;5.69;87.56;101727.77;2904698;82;21002;-70
2022/01/13 15:43:11;;;;;;;15.88;9.45;;;;;;;5.64;87.49;101735.02;2904441;82;21076;-71
2022/01/13 15:47:13;;;;;;;16.65;10.25;;;;;;;5.58;87.72;101722.90;2905195;81;21013;-70
2022/01/13 15:51:18;;;;;;;19.05;12.05;;;;;;;5.62;88.01;101727.61;2905079;82;21008;-70
2022/01/13 15:55:20;;;;;;;24.70;13.50;;;;;;;5.61;87.57;101732.94;2905279;81;20989;-73
2022/01/13 15:59:22;;;;;;;26.25;12.05;;;;;;;5.58;88.11;101733.91;2904765;82;21033;-70
2022/01/13 16:03:25;;;;;;;17.65;10.43;;;;;;;5.65;87.89;101751.70;2904898;82;21061;-70
2022/01/13 16:07:27;;;;;;;15.75;11.43;;;;;;;5.62;87.48;101763.25;2905240;82;20950;-70
2022/01/13 16:11:34;;;;;;;40.03;23.02;;;;;;;5.65;87.48;101754.34;2905338;81;21032;-70
2022/01/13 16:15:38;;;;;;;20.70;12.28;;;;;;;5.70;87.44;101747.97;2904776;82;21048;-70
2022/01/13 16:19:41;;;;;;;17.12;11.57;;;;;;;5.61;87.63;101751.42;2904852;81;21007;-70
2022/01/13 16:23:44;;;;;;;27.27;13.22;;;;;;;5.44;87.68;101748.94;2904832;81;20986;-70
2022/01/13 16:27:46;;;;;;;19.23;10.88;;;;;;;5.45;88.15;101753.30;2856221;81;21088;-70
2022/01/13 16:31:47;;;;;;;16.95;10.88;;;;;;;5.44;87.89;101752.90;2855207;83;21537;-70
2022/01/13 16:35:49;;;;;;;16.10;10.90;;;;;;;5.36;88.64;101749.69;2854913;83;21041;-70
2022/01/13 16:39:51;;;;;;;18.00;11.55;;;;;;;5.36;88.60;101754.50;2854710;83;21012;-70
2022/01/13 16:43:53;;;;;;;17.17;10.48;;;;;;;5.36;88.54;101753.66;2854846;83;21707;-69
2022/01/13 16:47:55;;;;;;;25.65;14.20;;;;;;;5.38;88.59;101746.53;2855123;83;21033;-69
2022/01/13 16:51:57;;;;;;;26.93;13.65;;;;;;;5.39;88.21;101758.81;2854907;83;21037;-71
2022/01/13 16:55:59;;;;;;;15.32;10.28;;;;;;;5.44;88.01;101763.45;2881921;82;21006;-70
2022/01/13 17:00:01;;;;;;;23.02;14.45;;;;;;;5.46;87.65;101770.02;2905083;81;20989;-70
2022/01/13 17:04:05;;;;;;;18.90;14.15;;;;;;;5.42;87.66;101767.94;2904850;81;21029;-70
2022/01/13 17:08:10;;;;;;;17.62;13.40;;;;;;;5.45;87.76;101773.09;2904857;81;20974;-71
2022/01/13 17:12:12;;;;;;;20.52;13.20;;;;;;;5.43;87.84;101764.38;2905024;81;21060;-70
2022/01/13 17:16:15;;;;;;;21.05;13.45;;;;;;;5.43;87.47;101780.21;2904678;81;21092;-70
2022/01/13 17:20:17;;;;;;;21.12;13.48;;;;;;;5.33;87.73;101782.32;2905123;81;20982;-70
2022/01/13 17:24:21;;;;;;;29.90;14.50;;;;;;;5.37;87.46;101780.44;2904982;81;21052;-70
2022/01/13 17:28:24;;;;;;;24.57;16.05;;;;;;;5.31;88.03;101780.67;2904897;81;21067;-70
2022/01/13 17:32:26;;;;;;;25.35;14.95;;;;;;;5.23;88.48;101773.03;2905094;81;21295;-70
2022/01/13 17:36:29;;;;;;;21.42;13.60;;;;;;;5.25;88.91;101768.08;2905108;82;21005;-70
2022/01/13 17:40:32;;;;;;;26.70;15.68;;;;;;;5.24;89.35;101770.79;2904749;81;20994;-70
2022/01/13 17:44:34;;;;;;;17.00;10.03;;;;;;;5.26;89.09;101772.44;2904702;80;21028;-70
2022/01/13 17:48:38;;;;;;;26.52;14.95;;;;;;;5.22;88.87;101770.83;2904910;82;21036;-69
2022/01/13 17:52:40;;;;;;;22.27;12.47;;;;;;;5.15;89.12;101773.30;2904914;81;21001;-69
2022/01/13 17:56:45;;;;;;;25.90;15.60;;;;;;;5.07;89.68;101776.64;2904696;81;21060;-70
2022/01/13 18:00:49;;;;;;;19.02;12.43;;;;;;;5.03;90.32;101771.95;2904903;81;21057;-70
2022/01/13 18:04:51;;;;;;;20.30;13.05;;;;;;;5.06;90.29;101775.80;2904809;82;21025;-70
2022/01/13 18:08:54;;;;;;;23.27;12.10;;;;;;;5.10;90.11;101781.80;2905018;82;21072;-70
2022/01/13 18:12:57;;;;;;;27.73;13.03;;;;;;;5.16;89.99;101781.61;2905197;81;21028;-70
2022/01/13 18:17:00;;;;;;;25.68;14.38;;;;;;;5.14;90.22;101776.84;2904902;81;21025;-70
2022/01/13 18:21:06;;;;;;;25.00;13.55;;;;;;;5.25;89.96;101781.27;2904896;81;21041;-70
2022/01/13 18:25:14;;;;;;;26.62;14.25;;;;;;;5.34;89.75;101776.59;2904751;76;21646;-70
2022/01/13 18:29:17;;;;;;;35.00;15.57;;;;;;;5.43;89.30;101766.57;2953128;80;21061;-71
2022/01/13 18:33:19;;;;;;;20.90;12.70;;;;;;;5.58;88.75;101770.86;2953250;80;20978;-70
2022/01/13 18:37:23;;;;;;;22.05;14.20;;;;;;;5.64;88.35;101772.42;2953421;80;21002;-71
2022/01/13 18:41:26;;;;;;;28.65;15.13;;;;;;;5.69;87.94;101759.90;2953862;80;20999;-71
2022/01/13 18:45:29;;;;;;;19.82;12.00;;;;;;;5.79;87.33;101774.48;2953721;80;21041;-70
2022/01/13 18:49:31;;;;;;;15.68;11.63;;;;;;;5.89;87.13;101770.16;2954725;80;21057;-70
2022/01/13 18:53:34;;;;;;;21.57;12.63;;;;;;;5.82;86.97;101751.92;2954957;80;20994;-71
2022/01/13 18:57:36;;;;;;;20.43;10.38;;;;;;;5.88;86.82;101760.52;2955088;80;21038;-70
2022/01/13 19:01:38;;;;;;;20.23;14.90;;;;;;;5.87;86.62;101754.39;2955314;80;20986;-70